This is the latest recevied weather packets stored in our database for station/object DG3GAI-6. If no packets are shown the sender has not sent any weather packets the latest 10 day(s).
| Time | Temp. | Humidity | Pressure | Rain* | Wind** | Luminosity | Snow |
|---|---|---|---|---|---|---|---|
| 1777495321 | 12.22° C | 44% | 1024 hPa | - | - | - | - |
| 1777493513 | 12.22° C | 44% | 1024 hPa | - | - | - | - |
| 1777491706 | 13.33° C | 43% | 1024 hPa | - | - | - | - |
| 1777488091 | 15° C | 38% | 1023 hPa | - | - | - | - |
| 1777486284 | 15° C | 39% | 1023 hPa | - | - | - | - |
| 1777484477 | 15° C | 38% | 1022 hPa | - | - | - | - |
| 1777480862 | 16.11° C | 33% | 1022 hPa | - | - | - | - |
| 1777479055 | 16.11° C | 33% | 1022 hPa | - | - | - | - |
| 1777477248 | 16.11° C | 34% | 1022 hPa | - | - | - | - |
| 1777475440 | 16.11° C | 34% | 1022 hPa | - | - | - | - |
| 1777473633 | 16.11° C | 36% | 1022 hPa | - | - | - | - |
| 1777471826 | 15.56° C | 37% | 1022 hPa | - | - | - | - |
| 1777470019 | 15.56° C | 36% | 1022 hPa | - | - | - | - |
| 1777468211 | 15° C | 37% | 1022 hPa | - | - | - | - |
| 1777466404 | 15° C | 38% | 1022 hPa | - | - | - | - |
| 1777464597 | 15° C | 39% | 1022 hPa | - | - | - | - |
| 1777462789 | 14.44° C | 42% | 1022 hPa | - | - | - | - |
| 1777460982 | 14.44° C | 43% | 1022 hPa | - | - | - | - |
| 1777459175 | 13.89° C | 42% | 1022 hPa | - | - | - | - |
| 1777457368 | 13.33° C | 46% | 1022 hPa | - | - | - | - |
| 1777455561 | 12.78° C | 52% | 1022 hPa | - | - | - | - |
| 1777453753 | 12.22° C | 54% | 1022 hPa | - | - | - | - |
| 1777451946 | 11.67° C | 55% | 1022 hPa | - | - | - | - |
| 1777450139 | 11.11° C | 57% | 1022 hPa | - | - | - | - |
| 1777448331 | 10.56° C | 58% | 1022 hPa | - | - | - | - |
* Rain since midnight (hover to see other rain measurements)
** Current wind speed in m/s (hover to see current wind gust speed)